sensor_id;sensor_type;location;lat;lon;timestamp;P1;durP1;ratioP1;P2;durP2;ratioP2
50739;SDS011;36704;52.524;17.580;2023-04-24T00:00:25;21.52;;;15.32;;
50739;SDS011;36704;52.524;17.580;2023-04-24T00:03:24;23.77;;;16.10;;
50739;SDS011;36704;52.524;17.580;2023-04-24T00:06:12;22.35;;;15.57;;
50739;SDS011;36704;52.524;17.580;2023-04-24T00:08:58;22.25;;;15.70;;
50739;SDS011;36704;52.524;17.580;2023-04-24T00:11:46;21.40;;;15.15;;
50739;SDS011;36704;52.524;17.580;2023-04-24T00:14:32;22.00;;;14.57;;
50739;SDS011;36704;52.524;17.580;2023-04-24T00:17:18;22.35;;;14.85;;
50739;SDS011;36704;52.524;17.580;2023-04-24T00:20:06;23.23;;;13.93;;
50739;SDS011;36704;52.524;17.580;2023-04-24T00:22:52;21.42;;;14.15;;
50739;SDS011;36704;52.524;17.580;2023-04-24T00:25:39;21.05;;;12.95;;
50739;SDS011;36704;52.524;17.580;2023-04-24T00:28:25;19.73;;;13.07;;
50739;SDS011;36704;52.524;17.580;2023-04-24T00:31:12;23.00;;;13.57;;
50739;SDS011;36704;52.524;17.580;2023-04-24T00:33:58;22.63;;;13.82;;
50739;SDS011;36704;52.524;17.580;2023-04-24T00:36:44;19.60;;;13.40;;
50739;SDS011;36704;52.524;17.580;2023-04-24T00:39:30;17.90;;;12.40;;
50739;SDS011;36704;52.524;17.580;2023-04-24T00:42:16;18.73;;;13.25;;
50739;SDS011;36704;52.524;17.580;2023-04-24T00:45:03;20.02;;;13.30;;
50739;SDS011;36704;52.524;17.580;2023-04-24T00:47:50;19.98;;;12.50;;
50739;SDS011;36704;52.524;17.580;2023-04-24T00:50:38;16.58;;;11.75;;
50739;SDS011;36704;52.524;17.580;2023-04-24T00:53:24;19.17;;;12.07;;
50739;SDS011;36704;52.524;17.580;2023-04-24T00:56:10;17.88;;;12.25;;
50739;SDS011;36704;52.524;17.580;2023-04-24T00:58:57;17.38;;;11.70;;
50739;SDS011;36704;52.524;17.580;2023-04-24T01:01:44;20.75;;;12.30;;
50739;SDS011;36704;52.524;17.580;2023-04-24T01:04:30;17.92;;;12.40;;
50739;SDS011;36704;52.524;17.580;2023-04-24T01:07:20;20.00;;;12.30;;
50739;SDS011;36704;52.524;17.580;2023-04-24T01:10:09;17.02;;;12.30;;
50739;SDS011;36704;52.524;17.580;2023-04-24T01:12:55;17.60;;;11.95;;
50739;SDS011;36704;52.524;17.580;2023-04-24T01:15:42;17.55;;;11.73;;
50739;SDS011;36704;52.524;17.580;2023-04-24T01:18:28;19.17;;;12.07;;
50739;SDS011;36704;52.524;17.580;2023-04-24T01:21:15;17.38;;;11.43;;
50739;SDS011;36704;52.524;17.580;2023-04-24T01:24:02;18.85;;;11.85;;
50739;SDS011;36704;52.524;17.580;2023-04-24T01:26:51;20.52;;;11.98;;
50739;SDS011;36704;52.524;17.580;2023-04-24T01:29:38;18.02;;;11.88;;
50739;SDS011;36704;52.524;17.580;2023-04-24T01:32:24;18.38;;;10.95;;
50739;SDS011;36704;52.524;17.580;2023-04-24T01:35:11;18.40;;;12.23;;
50739;SDS011;36704;52.524;17.580;2023-04-24T01:37:57;18.58;;;12.10;;
50739;SDS011;36704;52.524;17.580;2023-04-24T01:40:44;21.83;;;12.38;;
50739;SDS011;36704;52.524;17.580;2023-04-24T01:43:30;18.13;;;12.20;;
50739;SDS011;36704;52.524;17.580;2023-04-24T01:46:17;17.98;;;11.82;;
50739;SDS011;36704;52.524;17.580;2023-04-24T01:49:03;16.52;;;11.60;;
50739;SDS011;36704;52.524;17.580;2023-04-24T01:51:49;17.30;;;11.27;;
50739;SDS011;36704;52.524;17.580;2023-04-24T01:54:36;16.00;;;11.32;;
50739;SDS011;36704;52.524;17.580;2023-04-24T01:57:22;18.73;;;10.98;;
50739;SDS011;36704;52.524;17.580;2023-04-24T02:00:08;18.73;;;12.30;;
50739;SDS011;36704;52.524;17.580;2023-04-24T02:03:01;23.23;;;12.55;;
50739;SDS011;36704;52.524;17.580;2023-04-24T02:05:48;20.52;;;12.05;;
50739;SDS011;36704;52.524;17.580;2023-04-24T02:08:34;17.20;;;12.10;;
50739;SDS011;36704;52.524;17.580;2023-04-24T02:11:20;19.15;;;11.95;;
50739;SDS011;36704;52.524;17.580;2023-04-24T02:14:06;16.52;;;12.07;;
50739;SDS011;36704;52.524;17.580;2023-04-24T02:16:52;20.10;;;13.40;;
50739;SDS011;36704;52.524;17.580;2023-04-24T02:19:39;20.83;;;12.02;;
50739;SDS011;36704;52.524;17.580;2023-04-24T02:22:25;19.23;;;12.85;;
50739;SDS011;36704;52.524;17.580;2023-04-24T02:25:12;18.30;;;12.73;;
50739;SDS011;36704;52.524;17.580;2023-04-24T02:27:58;22.85;;;13.55;;
50739;SDS011;36704;52.524;17.580;2023-04-24T02:30:44;20.95;;;13.85;;
50739;SDS011;36704;52.524;17.580;2023-04-24T02:33:30;19.55;;;12.88;;
50739;SDS011;36704;52.524;17.580;2023-04-24T02:36:17;19.70;;;13.48;;
50739;SDS011;36704;52.524;17.580;2023-04-24T02:39:03;20.00;;;12.82;;
50739;SDS011;36704;52.524;17.580;2023-04-24T02:41:50;17.40;;;11.52;;
50739;SDS011;36704;52.524;17.580;2023-04-24T02:44:36;19.33;;;12.90;;
50739;SDS011;36704;52.524;17.580;2023-04-24T02:47:22;20.85;;;12.70;;
50739;SDS011;36704;52.524;17.580;2023-04-24T02:50:08;18.23;;;11.10;;
50739;SDS011;36704;52.524;17.580;2023-04-24T02:52:55;19.70;;;12.02;;
50739;SDS011;36704;52.524;17.580;2023-04-24T02:55:41;19.52;;;12.88;;
50739;SDS011;36704;52.524;17.580;2023-04-24T02:58:27;19.15;;;13.32;;
50739;SDS011;36704;52.524;17.580;2023-04-24T03:01:13;20.08;;;13.90;;
50739;SDS011;36704;52.524;17.580;2023-04-24T03:03:59;21.95;;;14.88;;
50739;SDS011;36704;52.524;17.580;2023-04-24T03:06:46;20.77;;;14.23;;
50739;SDS011;36704;52.524;17.580;2023-04-24T03:09:31;23.58;;;14.60;;
50739;SDS011;36704;52.524;17.580;2023-04-24T03:12:17;21.88;;;13.73;;
50739;SDS011;36704;52.524;17.580;2023-04-24T03:15:04;21.25;;;14.55;;
50739;SDS011;36704;52.524;17.580;2023-04-24T03:17:50;22.42;;;15.82;;
50739;SDS011;36704;52.524;17.580;2023-04-24T03:20:38;44.58;;;27.25;;
50739;SDS011;36704;52.524;17.580;2023-04-24T03:23:25;22.50;;;16.17;;
50739;SDS011;36704;52.524;17.580;2023-04-24T03:26:11;25.88;;;15.38;;
50739;SDS011;36704;52.524;17.580;2023-04-24T03:29:08;27.15;;;15.52;;
50739;SDS011;36704;52.524;17.580;2023-04-24T03:31:56;22.67;;;15.57;;
50739;SDS011;36704;52.524;17.580;2023-04-24T03:34:42;25.23;;;15.23;;
50739;SDS011;36704;52.524;17.580;2023-04-24T03:37:30;25.10;;;17.25;;
50739;SDS011;36704;52.524;17.580;2023-04-24T03:40:31;24.90;;;17.42;;
50739;SDS011;36704;52.524;17.580;2023-04-24T03:43:20;34.72;;;19.90;;
50739;SDS011;36704;52.524;17.580;2023-04-24T03:46:06;31.08;;;18.48;;
50739;SDS011;36704;52.524;17.580;2023-04-24T03:48:59;21.98;;;16.05;;
50739;SDS011;36704;52.524;17.580;2023-04-24T03:51:50;22.67;;;15.40;;
50739;SDS011;36704;52.524;17.580;2023-04-24T03:54:40;23.92;;;15.07;;
50739;SDS011;36704;52.524;17.580;2023-04-24T03:57:26;20.33;;;14.27;;
50739;SDS011;36704;52.524;17.580;2023-04-24T04:00:36;24.60;;;17.00;;
50739;SDS011;36704;52.524;17.580;2023-04-24T04:03:41;24.38;;;16.27;;
50739;SDS011;36704;52.524;17.580;2023-04-24T04:06:28;20.85;;;14.23;;
50739;SDS011;36704;52.524;17.580;2023-04-24T04:09:18;20.77;;;13.25;;
50739;SDS011;36704;52.524;17.580;2023-04-24T04:12:04;20.55;;;13.40;;
50739;SDS011;36704;52.524;17.580;2023-04-24T04:14:51;23.55;;;14.45;;
50739;SDS011;36704;52.524;17.580;2023-04-24T04:17:38;26.80;;;14.65;;
50739;SDS011;36704;52.524;17.580;2023-04-24T04:20:25;22.02;;;14.52;;
50739;SDS011;36704;52.524;17.580;2023-04-24T04:23:11;23.77;;;14.95;;
50739;SDS011;36704;52.524;17.580;2023-04-24T04:26:08;25.48;;;17.02;;
50739;SDS011;36704;52.524;17.580;2023-04-24T04:29:07;23.23;;;16.20;;
50739;SDS011;36704;52.524;17.580;2023-04-24T04:31:57;28.05;;;19.45;;
50739;SDS011;36704;52.524;17.580;2023-04-24T04:34:45;30.48;;;20.85;;
50739;SDS011;36704;52.524;17.580;2023-04-24T04:37:31;27.42;;;18.58;;
50739;SDS011;36704;52.524;17.580;2023-04-24T04:40:42;26.92;;;17.48;;
50739;SDS011;36704;52.524;17.580;2023-04-24T04:43:29;27.67;;;17.95;;
50739;SDS011;36704;52.524;17.580;2023-04-24T04:46:17;27.17;;;16.90;;
50739;SDS011;36704;52.524;17.580;2023-04-24T04:49:22;26.02;;;17.15;;
50739;SDS011;36704;52.524;17.580;2023-04-24T04:52:10;27.83;;;20.05;;
50739;SDS011;36704;52.524;17.580;2023-04-24T04:54:55;30.65;;;21.80;;
50739;SDS011;36704;52.524;17.580;2023-04-24T04:57:50;25.88;;;16.30;;
50739;SDS011;36704;52.524;17.580;2023-04-24T05:00:36;23.58;;;16.05;;
50739;SDS011;36704;52.524;17.580;2023-04-24T05:03:35;25.33;;;16.10;;
50739;SDS011;36704;52.524;17.580;2023-04-24T05:06:25;23.43;;;15.63;;
50739;SDS011;36704;52.524;17.580;2023-04-24T05:09:12;23.38;;;16.33;;
50739;SDS011;36704;52.524;17.580;2023-04-24T05:12:10;20.73;;;14.85;;
50739;SDS011;36704;52.524;17.580;2023-04-24T05:15:04;21.33;;;15.43;;
50739;SDS011;36704;52.524;17.580;2023-04-24T05:17:51;20.98;;;14.90;;
50739;SDS011;36704;52.524;17.580;2023-04-24T05:20:37;22.45;;;14.85;;
50739;SDS011;36704;52.524;17.580;2023-04-24T05:23:23;24.95;;;16.27;;
50739;SDS011;36704;52.524;17.580;2023-04-24T05:26:11;22.63;;;14.93;;
50739;SDS011;36704;52.524;17.580;2023-04-24T05:28:59;28.17;;;16.75;;
50739;SDS011;36704;52.524;17.580;2023-04-24T05:31:46;28.23;;;17.15;;
50739;SDS011;36704;52.524;17.580;2023-04-24T05:34:32;29.75;;;16.60;;
50739;SDS011;36704;52.524;17.580;2023-04-24T05:37:19;25.38;;;16.58;;
50739;SDS011;36704;52.524;17.580;2023-04-24T05:40:05;26.45;;;15.50;;
50739;SDS011;36704;52.524;17.580;2023-04-24T05:42:51;21.95;;;15.65;;
50739;SDS011;36704;52.524;17.580;2023-04-24T05:45:39;22.90;;;15.10;;
50739;SDS011;36704;52.524;17.580;2023-04-24T05:48:25;24.73;;;16.73;;
50739;SDS011;36704;52.524;17.580;2023-04-24T05:51:11;21.48;;;15.60;;
50739;SDS011;36704;52.524;17.580;2023-04-24T05:53:57;23.70;;;15.02;;
50739;SDS011;36704;52.524;17.580;2023-04-24T05:56:44;22.15;;;15.50;;
50739;SDS011;36704;52.524;17.580;2023-04-24T05:59:36;24.60;;;16.48;;
50739;SDS011;36704;52.524;17.580;2023-04-24T06:02:23;20.67;;;13.38;;
50739;SDS011;36704;52.524;17.580;2023-04-24T06:05:10;21.08;;;14.18;;
50739;SDS011;36704;52.524;17.580;2023-04-24T06:07:56;22.08;;;15.07;;
50739;SDS011;36704;52.524;17.580;2023-04-24T06:10:45;18.00;;;12.60;;
50739;SDS011;36704;52.524;17.580;2023-04-24T06:13:34;18.45;;;12.27;;
50739;SDS011;36704;52.524;17.580;2023-04-24T06:16:41;18.95;;;12.05;;
50739;SDS011;36704;52.524;17.580;2023-04-24T06:19:38;16.85;;;11.98;;
50739;SDS011;36704;52.524;17.580;2023-04-24T06:22:24;16.13;;;11.25;;
50739;SDS011;36704;52.524;17.580;2023-04-24T06:25:10;15.20;;;10.77;;
50739;SDS011;36704;52.524;17.580;2023-04-24T06:27:56;19.73;;;10.70;;
50739;SDS011;36704;52.524;17.580;2023-04-24T06:30:43;15.75;;;10.77;;
50739;SDS011;36704;52.524;17.580;2023-04-24T06:33:30;16.77;;;11.43;;
50739;SDS011;36704;52.524;17.580;2023-04-24T06:36:16;14.82;;;10.70;;
50739;SDS011;36704;52.524;17.580;2023-04-24T06:39:02;15.32;;;10.55;;
50739;SDS011;36704;52.524;17.580;2023-04-24T06:41:49;18.00;;;11.02;;
50739;SDS011;36704;52.524;17.580;2023-04-24T06:44:39;14.93;;;10.70;;
50739;SDS011;36704;52.524;17.580;2023-04-24T06:47:28;16.02;;;10.60;;
50739;SDS011;36704;52.524;17.580;2023-04-24T06:50:15;15.20;;;10.60;;
50739;SDS011;36704;52.524;17.580;2023-04-24T06:53:01;15.38;;;10.85;;
50739;SDS011;36704;52.524;17.580;2023-04-24T06:55:46;17.05;;;11.10;;
50739;SDS011;36704;52.524;17.580;2023-04-24T06:58:32;14.02;;;10.48;;
50739;SDS011;36704;52.524;17.580;2023-04-24T07:01:19;14.05;;;9.98;;
50739;SDS011;36704;52.524;17.580;2023-04-24T07:04:05;15.65;;;10.88;;
50739;SDS011;36704;52.524;17.580;2023-04-24T07:06:51;13.35;;;10.20;;
50739;SDS011;36704;52.524;17.580;2023-04-24T07:09:39;13.65;;;9.48;;
50739;SDS011;36704;52.524;17.580;2023-04-24T07:12:28;15.68;;;9.38;;
50739;SDS011;36704;52.524;17.580;2023-04-24T07:15:15;14.18;;;9.80;;
50739;SDS011;36704;52.524;17.580;2023-04-24T07:18:02;14.93;;;8.95;;
50739;SDS011;36704;52.524;17.580;2023-04-24T07:20:50;11.68;;;8.82;;
50739;SDS011;36704;52.524;17.580;2023-04-24T07:23:36;13.88;;;9.20;;
50739;SDS011;36704;52.524;17.580;2023-04-24T07:26:23;11.70;;;8.75;;
50739;SDS011;36704;52.524;17.580;2023-04-24T07:29:09;10.70;;;8.88;;
50739;SDS011;36704;52.524;17.580;2023-04-24T07:31:55;13.25;;;8.50;;
50739;SDS011;36704;52.524;17.580;2023-04-24T07:34:42;11.85;;;8.68;;
50739;SDS011;36704;52.524;17.580;2023-04-24T07:37:28;11.75;;;8.85;;
50739;SDS011;36704;52.524;17.580;2023-04-24T07:40:15;12.43;;;9.63;;
50739;SDS011;36704;52.524;17.580;2023-04-24T07:43:01;16.00;;;9.68;;
50739;SDS011;36704;52.524;17.580;2023-04-24T07:45:47;11.73;;;8.35;;
50739;SDS011;36704;52.524;17.580;2023-04-24T07:48:33;10.77;;;8.93;;
50739;SDS011;36704;52.524;17.580;2023-04-24T07:51:20;11.88;;;9.10;;
50739;SDS011;36704;52.524;17.580;2023-04-24T07:54:06;11.60;;;9.02;;
50739;SDS011;36704;52.524;17.580;2023-04-24T07:56:52;12.55;;;9.32;;
50739;SDS011;36704;52.524;17.580;2023-04-24T07:59:37;11.70;;;9.02;;
50739;SDS011;36704;52.524;17.580;2023-04-24T08:02:24;12.10;;;8.82;;
50739;SDS011;36704;52.524;17.580;2023-04-24T08:05:13;15.82;;;8.80;;
50739;SDS011;36704;52.524;17.580;2023-04-24T08:07:59;12.15;;;8.32;;
50739;SDS011;36704;52.524;17.580;2023-04-24T08:10:45;11.82;;;8.73;;
50739;SDS011;36704;52.524;17.580;2023-04-24T08:13:32;13.77;;;8.75;;
50739;SDS011;36704;52.524;17.580;2023-04-24T08:16:18;15.80;;;9.73;;
50739;SDS011;36704;52.524;17.580;2023-04-24T08:19:04;11.10;;;7.93;;
50739;SDS011;36704;52.524;17.580;2023-04-24T08:21:51;15.23;;;9.43;;
50739;SDS011;36704;52.524;17.580;2023-04-24T08:24:37;15.20;;;9.00;;
50739;SDS011;36704;52.524;17.580;2023-04-24T08:27:23;11.68;;;9.40;;
50739;SDS011;36704;52.524;17.580;2023-04-24T08:30:10;13.68;;;9.15;;
50739;SDS011;36704;52.524;17.580;2023-04-24T08:32:56;12.27;;;8.90;;
50739;SDS011;36704;52.524;17.580;2023-04-24T08:35:43;14.43;;;9.20;;
50739;SDS011;36704;52.524;17.580;2023-04-24T08:38:29;13.98;;;8.82;;
50739;SDS011;36704;52.524;17.580;2023-04-24T08:41:15;12.90;;;8.65;;
50739;SDS011;36704;52.524;17.580;2023-04-24T08:44:03;13.25;;;8.77;;
50739;SDS011;36704;52.524;17.580;2023-04-24T08:46:49;15.55;;;9.02;;
50739;SDS011;36704;52.524;17.580;2023-04-24T08:49:37;11.60;;;8.48;;
50739;SDS011;36704;52.524;17.580;2023-04-24T08:52:23;14.07;;;9.70;;
50739;SDS011;36704;52.524;17.580;2023-04-24T08:55:11;15.55;;;9.50;;
50739;SDS011;36704;52.524;17.580;2023-04-24T08:57:58;15.38;;;9.77;;
50739;SDS011;36704;52.524;17.580;2023-04-24T09:00:44;12.52;;;8.85;;
50739;SDS011;36704;52.524;17.580;2023-04-24T09:03:33;12.02;;;9.35;;
50739;SDS011;36704;52.524;17.580;2023-04-24T09:06:19;13.02;;;9.57;;
50739;SDS011;36704;52.524;17.580;2023-04-24T09:09:07;16.27;;;10.77;;
50739;SDS011;36704;52.524;17.580;2023-04-24T09:11:53;16.90;;;10.73;;
50739;SDS011;36704;52.524;17.580;2023-04-24T09:14:41;17.45;;;10.82;;
50739;SDS011;36704;52.524;17.580;2023-04-24T09:17:31;14.77;;;10.07;;
50739;SDS011;36704;52.524;17.580;2023-04-24T09:20:18;13.02;;;9.15;;
50739;SDS011;36704;52.524;17.580;2023-04-24T09:23:04;12.98;;;9.68;;
50739;SDS011;36704;52.524;17.580;2023-04-24T09:25:54;14.95;;;10.57;;
50739;SDS011;36704;52.524;17.580;2023-04-24T09:28:40;14.90;;;10.52;;
50739;SDS011;36704;52.524;17.580;2023-04-24T09:31:27;16.48;;;10.23;;
50739;SDS011;36704;52.524;17.580;2023-04-24T09:34:14;14.93;;;9.85;;
50739;SDS011;36704;52.524;17.580;2023-04-24T09:37:00;14.10;;;10.13;;
50739;SDS011;36704;52.524;17.580;2023-04-24T09:39:46;13.60;;;10.10;;
50739;SDS011;36704;52.524;17.580;2023-04-24T09:42:59;14.48;;;10.38;;
50739;SDS011;36704;52.524;17.580;2023-04-24T09:45:48;15.25;;;10.63;;
50739;SDS011;36704;52.524;17.580;2023-04-24T09:48:37;15.20;;;10.13;;
50739;SDS011;36704;52.524;17.580;2023-04-24T09:51:34;12.25;;;9.50;;
50739;SDS011;36704;52.524;17.580;2023-04-24T09:54:22;13.45;;;10.10;;
50739;SDS011;36704;52.524;17.580;2023-04-24T09:57:09;16.40;;;10.13;;
50739;SDS011;36704;52.524;17.580;2023-04-24T09:59:56;13.73;;;9.88;;
50739;SDS011;36704;52.524;17.580;2023-04-24T10:02:43;14.00;;;10.00;;
50739;SDS011;36704;52.524;17.580;2023-04-24T10:05:33;12.68;;;9.80;;
50739;SDS011;36704;52.524;17.580;2023-04-24T10:08:21;14.90;;;10.20;;
50739;SDS011;36704;52.524;17.580;2023-04-24T10:11:07;13.43;;;8.18;;
50739;SDS011;36704;52.524;17.580;2023-04-24T10:13:53;13.07;;;8.07;;
50739;SDS011;36704;52.524;17.580;2023-04-24T10:16:41;11.07;;;8.20;;
50739;SDS011;36704;52.524;17.580;2023-04-24T10:19:28;9.98;;;7.80;;
50739;SDS011;36704;52.524;17.580;2023-04-24T10:22:15;11.45;;;7.70;;
50739;SDS011;36704;52.524;17.580;2023-04-24T10:25:03;10.00;;;7.53;;
50739;SDS011;36704;52.524;17.580;2023-04-24T10:27:51;8.88;;;7.43;;
50739;SDS011;36704;52.524;17.580;2023-04-24T10:30:37;13.75;;;8.80;;
50739;SDS011;36704;52.524;17.580;2023-04-24T10:33:24;10.95;;;7.80;;
50739;SDS011;36704;52.524;17.580;2023-04-24T10:36:11;11.55;;;8.27;;
50739;SDS011;36704;52.524;17.580;2023-04-24T10:39:01;11.50;;;8.55;;
50739;SDS011;36704;52.524;17.580;2023-04-24T10:41:50;9.98;;;7.38;;
50739;SDS011;36704;52.524;17.580;2023-04-24T10:44:37;9.30;;;8.30;;
50739;SDS011;36704;52.524;17.580;2023-04-24T10:47:22;9.32;;;8.05;;
50739;SDS011;36704;52.524;17.580;2023-04-24T10:50:12;9.60;;;7.55;;
50739;SDS011;36704;52.524;17.580;2023-04-24T10:53:05;12.93;;;8.20;;
50739;SDS011;36704;52.524;17.580;2023-04-24T10:56:03;11.80;;;7.50;;
50739;SDS011;36704;52.524;17.580;2023-04-24T10:58:50;10.05;;;7.22;;
50739;SDS011;36704;52.524;17.580;2023-04-24T11:01:38;10.10;;;7.88;;
50739;SDS011;36704;52.524;17.580;2023-04-24T11:04:31;8.70;;;6.85;;
50739;SDS011;36704;52.524;17.580;2023-04-24T11:07:19;11.68;;;7.82;;
50739;SDS011;36704;52.524;17.580;2023-04-24T11:10:06;11.50;;;7.45;;
50739;SDS011;36704;52.524;17.580;2023-04-24T11:12:52;9.38;;;6.85;;
50739;SDS011;36704;52.524;17.580;2023-04-24T11:15:40;10.55;;;7.43;;
50739;SDS011;36704;52.524;17.580;2023-04-24T11:18:36;9.60;;;6.65;;
50739;SDS011;36704;52.524;17.580;2023-04-24T11:21:23;8.60;;;6.82;;
50739;SDS011;36704;52.524;17.580;2023-04-24T11:27:17;10.93;;;6.57;;
50739;SDS011;36704;52.524;17.580;2023-04-24T11:30:08;8.63;;;6.07;;
50739;SDS011;36704;52.524;17.580;2023-04-24T11:32:55;9.05;;;6.30;;
50739;SDS011;36704;52.524;17.580;2023-04-24T11:35:48;7.18;;;6.22;;
50739;SDS011;36704;52.524;17.580;2023-04-24T11:38:36;8.63;;;6.97;;
50739;SDS011;36704;52.524;17.580;2023-04-24T11:41:22;10.30;;;7.57;;
50739;SDS011;36704;52.524;17.580;2023-04-24T11:44:08;9.10;;;6.40;;
50739;SDS011;36704;52.524;17.580;2023-04-24T11:46:56;8.05;;;6.50;;
50739;SDS011;36704;52.524;17.580;2023-04-24T11:49:42;10.88;;;7.13;;
50739;SDS011;36704;52.524;17.580;2023-04-24T11:52:29;10.50;;;6.63;;
50739;SDS011;36704;52.524;17.580;2023-04-24T11:58:01;8.32;;;6.43;;
50739;SDS011;36704;52.524;17.580;2023-04-24T12:00:53;9.38;;;6.95;;
50739;SDS011;36704;52.524;17.580;2023-04-24T12:03:41;8.57;;;6.80;;
50739;SDS011;36704;52.524;17.580;2023-04-24T12:06:30;8.75;;;7.05;;
50739;SDS011;36704;52.524;17.580;2023-04-24T12:09:16;8.38;;;6.63;;
50739;SDS011;36704;52.524;17.580;2023-04-24T12:12:03;8.43;;;6.50;;
50739;SDS011;36704;52.524;17.580;2023-04-24T12:14:53;8.75;;;6.60;;
50739;SDS011;36704;52.524;17.580;2023-04-24T12:17:41;11.10;;;6.05;;
50739;SDS011;36704;52.524;17.580;2023-04-24T12:20:29;6.20;;;5.28;;
50739;SDS011;36704;52.524;17.580;2023-04-24T12:23:36;7.90;;;5.95;;
50739;SDS011;36704;52.524;17.580;2023-04-24T12:26:23;7.22;;;5.50;;
50739;SDS011;36704;52.524;17.580;2023-04-24T12:29:10;5.57;;;4.95;;
50739;SDS011;36704;52.524;17.580;2023-04-24T12:31:56;5.97;;;4.80;;
50739;SDS011;36704;52.524;17.580;2023-04-24T12:34:43;5.82;;;4.60;;
50739;SDS011;36704;52.524;17.580;2023-04-24T12:37:32;4.15;;;3.63;;
50739;SDS011;36704;52.524;17.580;2023-04-24T12:40:19;4.68;;;3.97;;
50739;SDS011;36704;52.524;17.580;2023-04-24T12:43:16;5.93;;;4.88;;
50739;SDS011;36704;52.524;17.580;2023-04-24T12:46:03;6.20;;;4.35;;
50739;SDS011;36704;52.524;17.580;2023-04-24T12:48:50;5.65;;;4.60;;
50739;SDS011;36704;52.524;17.580;2023-04-24T12:51:36;6.72;;;4.53;;
50739;SDS011;36704;52.524;17.580;2023-04-24T12:54:22;5.22;;;4.10;;
50739;SDS011;36704;52.524;17.580;2023-04-24T12:57:09;6.43;;;4.97;;
50739;SDS011;36704;52.524;17.580;2023-04-24T12:59:55;6.63;;;4.22;;
50739;SDS011;36704;52.524;17.580;2023-04-24T13:02:42;5.72;;;4.72;;
50739;SDS011;36704;52.524;17.580;2023-04-24T13:05:29;6.53;;;5.32;;
50739;SDS011;36704;52.524;17.580;2023-04-24T13:08:15;6.97;;;4.70;;
50739;SDS011;36704;52.524;17.580;2023-04-24T13:11:01;5.82;;;4.65;;
50739;SDS011;36704;52.524;17.580;2023-04-24T13:13:48;7.68;;;5.60;;
50739;SDS011;36704;52.524;17.580;2023-04-24T13:16:34;7.60;;;5.68;;
50739;SDS011;36704;52.524;17.580;2023-04-24T13:19:20;7.72;;;5.35;;
50739;SDS011;36704;52.524;17.580;2023-04-24T13:22:08;7.47;;;5.32;;
50739;SDS011;36704;52.524;17.580;2023-04-24T13:24:56;7.07;;;5.03;;
50739;SDS011;36704;52.524;17.580;2023-04-24T13:27:42;5.90;;;4.78;;
50739;SDS011;36704;52.524;17.580;2023-04-24T13:30:28;7.32;;;5.13;;
50739;SDS011;36704;52.524;17.580;2023-04-24T13:33:15;6.78;;;5.00;;
50739;SDS011;36704;52.524;17.580;2023-04-24T13:36:01;7.40;;;5.38;;
50739;SDS011;36704;52.524;17.580;2023-04-24T13:38:47;6.00;;;5.30;;
50739;SDS011;36704;52.524;17.580;2023-04-24T13:41:33;5.60;;;5.00;;
50739;SDS011;36704;52.524;17.580;2023-04-24T13:44:19;7.63;;;5.30;;
50739;SDS011;36704;52.524;17.580;2023-04-24T13:47:06;6.65;;;4.85;;
50739;SDS011;36704;52.524;17.580;2023-04-24T13:49:52;6.53;;;5.18;;
50739;SDS011;36704;52.524;17.580;2023-04-24T13:52:39;6.55;;;4.72;;
50739;SDS011;36704;52.524;17.580;2023-04-24T13:55:25;6.75;;;4.93;;
50739;SDS011;36704;52.524;17.580;2023-04-24T13:58:11;10.25;;;5.22;;
50739;SDS011;36704;52.524;17.580;2023-04-24T14:00:57;6.07;;;4.20;;
50739;SDS011;36704;52.524;17.580;2023-04-24T14:03:43;5.90;;;4.40;;
50739;SDS011;36704;52.524;17.580;2023-04-24T14:06:30;7.22;;;4.45;;
50739;SDS011;36704;52.524;17.580;2023-04-24T14:09:16;7.05;;;4.55;;
50739;SDS011;36704;52.524;17.580;2023-04-24T14:12:02;5.88;;;3.30;;
50739;SDS011;36704;52.524;17.580;2023-04-24T14:14:48;5.38;;;3.70;;
50739;SDS011;36704;52.524;17.580;2023-04-24T14:17:35;5.40;;;3.65;;
50739;SDS011;36704;52.524;17.580;2023-04-24T14:20:21;7.60;;;3.95;;
50739;SDS011;36704;52.524;17.580;2023-04-24T14:23:07;4.50;;;3.85;;
50739;SDS011;36704;52.524;17.580;2023-04-24T14:25:53;5.80;;;4.15;;
50739;SDS011;36704;52.524;17.580;2023-04-24T14:28:40;7.45;;;5.22;;
50739;SDS011;36704;52.524;17.580;2023-04-24T14:31:26;5.20;;;3.67;;
50739;SDS011;36704;52.524;17.580;2023-04-24T14:34:13;4.45;;;3.50;;
50739;SDS011;36704;52.524;17.580;2023-04-24T14:36:59;5.82;;;3.42;;
50739;SDS011;36704;52.524;17.580;2023-04-24T14:39:46;5.03;;;3.20;;
50739;SDS011;36704;52.524;17.580;2023-04-24T14:42:45;4.68;;;3.38;;
50739;SDS011;36704;52.524;17.580;2023-04-24T14:48:58;7.15;;;3.65;;
50739;SDS011;36704;52.524;17.580;2023-04-24T14:51:44;5.28;;;3.45;;
50739;SDS011;36704;52.524;17.580;2023-04-24T14:54:30;6.50;;;3.70;;
50739;SDS011;36704;52.524;17.580;2023-04-24T14:57:17;4.82;;;3.20;;
50739;SDS011;36704;52.524;17.580;2023-04-24T15:00:04;5.35;;;4.80;;
50739;SDS011;36704;52.524;17.580;2023-04-24T15:02:53;4.65;;;3.55;;
50739;SDS011;36704;52.524;17.580;2023-04-24T15:05:40;7.88;;;3.63;;
50739;SDS011;36704;52.524;17.580;2023-04-24T15:08:27;7.00;;;4.13;;
50739;SDS011;36704;52.524;17.580;2023-04-24T15:11:13;5.40;;;3.85;;
50739;SDS011;36704;52.524;17.580;2023-04-24T15:13:59;4.47;;;3.50;;
50739;SDS011;36704;52.524;17.580;2023-04-24T15:16:44;37.97;;;22.08;;
50739;SDS011;36704;52.524;17.580;2023-04-24T15:19:31;14.75;;;9.50;;
50739;SDS011;36704;52.524;17.580;2023-04-24T15:22:17;14.38;;;7.63;;
50739;SDS011;36704;52.524;17.580;2023-04-24T15:25:03;12.40;;;7.82;;
50739;SDS011;36704;52.524;17.580;2023-04-24T15:27:51;9.95;;;7.30;;
50739;SDS011;36704;52.524;17.580;2023-04-24T15:30:38;10.57;;;6.95;;
50739;SDS011;36704;52.524;17.580;2023-04-24T15:33:24;7.70;;;6.57;;
50739;SDS011;36704;52.524;17.580;2023-04-24T15:36:11;8.70;;;5.50;;
50739;SDS011;36704;52.524;17.580;2023-04-24T15:38:57;8.65;;;6.22;;
50739;SDS011;36704;52.524;17.580;2023-04-24T15:41:43;13.57;;;8.65;;
50739;SDS011;36704;52.524;17.580;2023-04-24T15:44:29;13.77;;;10.25;;
50739;SDS011;36704;52.524;17.580;2023-04-24T15:47:16;8.07;;;7.15;;
50739;SDS011;36704;52.524;17.580;2023-04-24T15:50:02;9.75;;;7.65;;
50739;SDS011;36704;52.524;17.580;2023-04-24T15:52:49;8.10;;;6.60;;
50739;SDS011;36704;52.524;17.580;2023-04-24T15:55:35;7.75;;;6.00;;
50739;SDS011;36704;52.524;17.580;2023-04-24T15:58:22;59.95;;;25.23;;
50739;SDS011;36704;52.524;17.580;2023-04-24T16:01:07;14.93;;;8.60;;
50739;SDS011;36704;52.524;17.580;2023-04-24T16:03:53;46.00;;;19.40;;
50739;SDS011;36704;52.524;17.580;2023-04-24T16:06:40;31.75;;;14.10;;
50739;SDS011;36704;52.524;17.580;2023-04-24T16:09:26;23.30;;;11.23;;
50739;SDS011;36704;52.524;17.580;2023-04-24T16:12:12;35.20;;;15.10;;
50739;SDS011;36704;52.524;17.580;2023-04-24T16:14:59;37.20;;;16.35;;
50739;SDS011;36704;52.524;17.580;2023-04-24T16:17:45;19.80;;;9.13;;
50739;SDS011;36704;52.524;17.580;2023-04-24T16:20:31;21.73;;;18.77;;
50739;SDS011;36704;52.524;17.580;2023-04-24T16:23:17;41.80;;;21.80;;
50739;SDS011;36704;52.524;17.580;2023-04-24T16:26:03;32.00;;;17.35;;